Chinese Camp, CA (95309)

2:36 PM PDT on March 24, 2017 (GMT -0700)
Pulpit Rock | | Change Station
Active Advisory: Wind Advisory

Elev 1427 ft 37.96 °N, 120.43 °W | Updated 14 seconds ago

Rain
Rain
47.7 °F
Feels Like 48 °F
N
2.0
Wind Variable Wind from ESE

Today
High -- | Low -- °F
--% Chance of Precip.
Yesterday
High -- | Low -- °F
Precip. -- in
Pressure 30.27 in
Visibility 5.0 miles
Clouds Few 2900 ft
Scattered Clouds 3700 ft
Windchill 48 °F
Dew Point 45 °F
Humidity 91%
Rainfall 0.15 in
Snow Depth Not available.
6:58 AM 7:17 PM
Waning Crescent, 13% visible
METAR KO22 242115Z AUTO 12006KT 5SM FEW029 SCT037 08/06 A3027 RMK AO1 P0002
Pressure 30.27 in
Visibility 5.0 miles
Clouds Few 2900 ft
Scattered Clouds 3700 ft
Windchill 48 °F
Dew Point 45 °F
Humidity 91%
Rainfall 0.15 in
Snow Depth Not available.
6:58 AM 7:17 PM
Waning Crescent, 13% visible
METAR KO22 242115Z AUTO 12006KT 5SM FEW029 SCT037 08/06 A3027 RMK AO1 P0002

Get Your Daily Forecast Email!

Thanks for signing up!

Be on the lookout for a verification email in your inbox.

You'll start receiving severe weather alerts in your inbox..

×

10-Day Weather Forecast

Almanac

Astronomy

Mar. 24, 2017 Rise Set
Actual Time
Civil Twilight
Nautical Twilight
Astronomical Twilight
Moon
Length of Visible Light
Length of Day
Tomorrow will be .
, % of the Moon is Illuminated

Today's Extremes

State Highs State Lows

Community

WunderPhotos

Upload Photos

1,962,540 photos uploaded!

WunderBlog® & News

Nearby

Air Quality

  Air Quality AQ Index Pollutant
Not available.

Snow Depth

Station Depth Elevation

Earthquake Activity

City Distance Mag. Time & Date
Minimum magnitude displayed is 2.5.

Earthquake Activity

City Distance Mag. Time & Date
Minimum magnitude displayed is 2.5.

Coastal Water Temperatures

Place Temperature

Stations

Nearby Weather Stations

Station Location Temp. Windchill Dew Point Humidity Wind Precip. Elev Updated Type
                   

Watches & Warnings

Wind Advisory
Issued: 4:19 AM PDT Mar. 24, 2017 – National Weather Service

... Wind Advisory remains in effect from 9 am this morning to 7 PM
PDT this evening...

* timing... winds will increase this morning and continue through
this afternoon before declining this evening and overnight.

* Winds... south winds 20 to 30 mph with gusts up to 40 mph.

* Impacts... local downed trees and limbs, blowing debris, and
local power outages possible.

Precautionary/preparedness actions...

A Wind Advisory means that winds of 35 mph or higher are
expected. Winds this strong can make driving difficult, especially
for high profile vehicles. Use extra caution.


Interact with US via social media
www.Facebook.Com/NWS.Sacramento
www.Twitter.Com/nwssacramento